Honghai — XUBU8 — position and weather

sailwx.info

Track history (hours):
 
Tides and Currents Weather Stations Pressure Air Temp Water Temp Dewpoint Dewpoint Depression Visibility Wind Speed Wind Dir Waves Ship Positions

Honghai

Last reported at 2015-Mar-05 09:33 UTC. Time now 2015-Mar-05 10:32 UTC.
Position N 37°34' E 121°25'.

Length 72 m; draft 4.5 m.

Type: Cargo ship. MMSI: 515501000.

Date/timePositionNaut miles runAvg speedWind from/ knotsBaromVisibWave heightAir tempDewpointWater temp
2015-Mar-05 09:33N 37°34' E 121°25'0 0.0
2015-Mar-05 08:33N 37°34' E 121°25'0 0.0
2015-Mar-05 07:33N 37°34' E 121°25'0 0.0
2015-Mar-05 06:33N 37°34' E 121°25'0 0.0
2015-Mar-05 05:33N 37°34' E 121°25'0 0.0
2015-Mar-05 04:33N 37°34' E 121°25'0 0.0
2015-Mar-05 03:29N 37°34' E 121°25'0 0.0
2015-Mar-05 02:32N 37°34' E 121°25'0 0.0
2015-Mar-05 01:32N 37°34' E 121°25'0 0.0
2015-Mar-05 00:29N 37°34' E 121°25'0 0.0
2015-Mar-04 23:29N 37°34' E 121°25'0 0.0
2015-Mar-04 22:32N 37°34' E 121°25'0 0.0
2015-Mar-04 21:32N 37°34' E 121°25'0 0.0
2015-Mar-04 20:32N 37°34' E 121°25'0 0.0
2015-Mar-04 19:29N 37°34' E 121°25'0 0.0
2015-Mar-04 18:29N 37°34' E 121°25'0 0.1
2015-Mar-04 17:32N 37°34' E 121°25'0 0.0
2015-Mar-04 16:32N 37°34' E 121°25'0 0.0
2015-Mar-04 15:32N 37°34' E 121°25'0 0.0
2015-Mar-04 14:32N 37°34' E 121°25'0 0.0
2015-Mar-04 13:32N 37°34' E 121°25'0 0.0
2015-Mar-04 12:32N 37°34' E 121°25'0 0.0
2015-Mar-04 11:32N 37°34' E 121°25'0 0.0
2015-Mar-04 10:29N 37°34' E 121°25'0 0.0
2015-Mar-04 09:32N 37°34' E 121°25'0 0.0
2015-Mar-04 08:32N 37°34' E 121°25'0 0.0
2015-Mar-04 07:32N 37°34' E 121°25'2 2.2
2015-Mar-04 06:33N 37°35' E 121°27'8 8.3
2015-Mar-04 05:33N 37°42' E 121°21'9 8.7
2015-Mar-04 04:33N 37°48' E 121°13'174 5.3
2015-Mar-02 19:32N 38°58' E 117°50'3 3.2
2015-Mar-02 18:32N 38°58' E 117°46'0 0.0
2015-Mar-02 17:32N 38°58' E 117°46'0 0.0
2015-Mar-02 16:32N 38°58' E 117°46'0 0.0
2015-Mar-02 15:32N 38°58' E 117°46'0 0.0
2015-Mar-02 14:32N 38°58' E 117°46'0 0.0
2015-Mar-02 13:32N 38°58' E 117°46'0 0.0
2015-Mar-02 12:32N 38°58' E 117°46'0 0.0
2015-Mar-02 11:20N 38°58' E 117°46'0 0.0
2015-Mar-02 10:32N 38°58' E 117°46'0 0.0
2015-Mar-02 09:30N 38°58' E 117°46'9 8.1
2015-Mar-02 08:23N 38°57' E 117°58'3 0.3
2015-Mar-01 20:12N 38°58' E 118°01'0 0.0
2015-Mar-01 19:24N 38°58' E 118°01'0 0.0
2015-Mar-01 18:18N 38°58' E 118°01'0 0.0
2015-Feb-28 19:23N 38°58' E 118°01'216 9.0
2015-Feb-27 19:18N 37°41' E 122°19'911.5
2015-Feb-27 18:29N 37°38' E 122°30'48 9.4
2015-Feb-27 13:19N 36°53' E 122°52'  
Track history (hours):
 
Tides and Currents Weather Stations Pressure Air Temp Water Temp Dewpoint Dewpoint Depression Visibility Wind Speed Wind Dir Waves Ship Positions

Honghai

Last reported at 2015-Mar-05 09:33 UTC. Time now 2015-Mar-05 10:32 UTC.
Position N 37°34' E 121°25'.

Length 72 m; draft 4.5 m.

Type: Cargo ship. MMSI: 515501000.

Date/timePositionNaut miles runAvg speedWind from/ knotsBaromVisibWave heightAir tempDewpointWater temp
2015-Mar-05 09:33N 37°34' E 121°25'0 0.0
2015-Mar-05 08:33N 37°34' E 121°25'0 0.0
2015-Mar-05 07:33N 37°34' E 121°25'0 0.0
2015-Mar-05 06:33N 37°34' E 121°25'0 0.0
2015-Mar-05 05:33N 37°34' E 121°25'0 0.0
2015-Mar-05 04:33N 37°34' E 121°25'0 0.0
2015-Mar-05 03:29N 37°34' E 121°25'0 0.0
2015-Mar-05 02:32N 37°34' E 121°25'0 0.0
2015-Mar-05 01:32N 37°34' E 121°25'0 0.0
2015-Mar-05 00:29N 37°34' E 121°25'0 0.0
2015-Mar-04 23:29N 37°34' E 121°25'0 0.0
2015-Mar-04 22:32N 37°34' E 121°25'0 0.0
2015-Mar-04 21:32N 37°34' E 121°25'0 0.0
2015-Mar-04 20:32N 37°34' E 121°25'0 0.0
2015-Mar-04 19:29N 37°34' E 121°25'0 0.0
2015-Mar-04 18:29N 37°34' E 121°25'0 0.1
2015-Mar-04 17:32N 37°34' E 121°25'0 0.0
2015-Mar-04 16:32N 37°34' E 121°25'0 0.0
2015-Mar-04 15:32N 37°34' E 121°25'0 0.0
2015-Mar-04 14:32N 37°34' E 121°25'0 0.0
2015-Mar-04 13:32N 37°34' E 121°25'0 0.0
2015-Mar-04 12:32N 37°34' E 121°25'0 0.0
2015-Mar-04 11:32N 37°34' E 121°25'0 0.0
2015-Mar-04 10:29N 37°34' E 121°25'0 0.0
2015-Mar-04 09:32N 37°34' E 121°25'0 0.0
2015-Mar-04 08:32N 37°34' E 121°25'0 0.0
2015-Mar-04 07:32N 37°34' E 121°25'2 2.2
2015-Mar-04 06:33N 37°35' E 121°27'8 8.3
2015-Mar-04 05:33N 37°42' E 121°21'9 8.7
2015-Mar-04 04:33N 37°48' E 121°13'174 5.3
2015-Mar-02 19:32N 38°58' E 117°50'3 3.2
2015-Mar-02 18:32N 38°58' E 117°46'0 0.0
2015-Mar-02 17:32N 38°58' E 117°46'0 0.0
2015-Mar-02 16:32N 38°58' E 117°46'0 0.0
2015-Mar-02 15:32N 38°58' E 117°46'0 0.0
2015-Mar-02 14:32N 38°58' E 117°46'0 0.0
2015-Mar-02 13:32N 38°58' E 117°46'0 0.0
2015-Mar-02 12:32N 38°58' E 117°46'0 0.0
2015-Mar-02 11:20N 38°58' E 117°46'0 0.0
2015-Mar-02 10:32N 38°58' E 117°46'0 0.0
2015-Mar-02 09:30N 38°58' E 117°46'9 8.1
2015-Mar-02 08:23N 38°57' E 117°58'3 0.3
2015-Mar-01 20:12N 38°58' E 118°01'0 0.0
2015-Mar-01 19:24N 38°58' E 118°01'0 0.0
2015-Mar-01 18:18N 38°58' E 118°01'0 0.0
2015-Feb-28 19:23N 38°58' E 118°01'216 9.0
2015-Feb-27 19:18N 37°41' E 122°19'911.5
2015-Feb-27 18:29N 37°38' E 122°30'48 9.4
2015-Feb-27 13:19N 36°53' E 122°52'  

Dump ship's entire track history